createdAt,value
2019-04-11T00:00:42.356Z,35.00
2019-04-11T00:03:11.375Z,35.10
2019-04-11T00:05:41.187Z,35.10
2019-04-11T00:08:10.187Z,35.00
2019-04-11T00:10:39.600Z,35.00
2019-04-11T00:13:18.273Z,35.00
2019-04-11T00:15:38.809Z,35.00
2019-04-11T00:18:08.262Z,35.00
2019-04-11T00:20:37.024Z,35.00
2019-04-11T00:23:06.109Z,35.00
2019-04-11T00:25:35.810Z,35.00
2019-04-11T00:28:05.770Z,35.00
2019-04-11T00:30:34.526Z,34.90
2019-04-11T00:33:03.265Z,35.00
2019-04-11T00:35:32.075Z,35.00
2019-04-11T00:38:01.399Z,35.00
2019-04-11T00:40:30.228Z,35.00
2019-04-11T00:42:59.002Z,34.90
2019-04-11T00:45:27.699Z,35.00
2019-04-11T00:47:57.463Z,34.90
2019-04-11T00:50:27.369Z,34.90
2019-04-11T00:52:57.898Z,34.90
2019-04-11T00:55:27.186Z,35.00
2019-04-11T00:57:57.014Z,34.90
2019-04-11T01:00:27.088Z,34.90
2019-04-11T01:02:55.945Z,34.90
2019-04-11T01:05:25.637Z,34.90
2019-04-11T01:07:55.422Z,34.90
2019-04-11T01:10:24.724Z,34.90
2019-04-11T01:12:53.572Z,34.90
2019-04-11T01:15:23.839Z,34.80
2019-04-11T01:17:52.517Z,34.90
2019-04-11T01:20:21.658Z,34.80
2019-04-11T01:22:50.804Z,34.90
2019-04-11T01:25:20.098Z,34.90
2019-04-11T01:27:49.997Z,34.80
2019-04-11T01:30:20.739Z,34.80
2019-04-11T01:32:50.467Z,34.90
2019-04-11T01:35:19.461Z,34.80
2019-04-11T01:37:48.250Z,34.80
2019-04-11T01:40:17.904Z,34.80
2019-04-11T01:42:47.137Z,34.80
2019-04-11T01:45:19.042Z,34.70
2019-04-11T01:47:55.327Z,34.70
2019-04-11T01:50:25.692Z,34.70
2019-04-11T01:52:55.020Z,34.70
2019-04-11T01:55:24.148Z,34.70
2019-04-11T01:57:53.994Z,34.70
2019-04-11T02:00:36.781Z,34.70
2019-04-11T02:03:07.296Z,34.60
2019-04-11T02:05:36.953Z,34.70
2019-04-11T02:08:06.998Z,34.60
2019-04-11T02:10:37.031Z,34.60
2019-04-11T02:13:05.968Z,34.60
2019-04-11T02:15:34.730Z,34.70
2019-04-11T02:18:03.528Z,34.60
2019-04-11T02:20:33.275Z,34.50
2019-04-11T02:23:13.062Z,34.60
2019-04-11T02:25:47.058Z,34.50
2019-04-11T02:28:17.564Z,34.50
2019-04-11T02:30:48.510Z,34.50
2019-04-11T02:33:18.351Z,34.50
2019-04-11T02:35:49.237Z,34.40
2019-04-11T02:38:18.952Z,34.50
2019-04-11T02:40:49.782Z,34.40
2019-04-11T02:43:20.215Z,34.40
2019-04-11T02:45:58.804Z,34.40
2019-04-11T02:48:20.673Z,34.40
2019-04-11T02:50:50.349Z,34.40
2019-04-11T02:53:21.252Z,34.30
2019-04-11T02:55:52.048Z,34.30
2019-04-11T02:58:22.871Z,34.30
2019-04-11T03:00:53.643Z,34.30
2019-04-11T03:03:23.179Z,34.30
2019-04-11T03:05:53.267Z,34.30
2019-04-11T03:08:24.053Z,34.30
2019-04-11T03:10:53.619Z,34.30
2019-04-11T03:13:23.312Z,34.30
2019-04-11T03:16:07.361Z,34.30
2019-04-11T03:18:40.699Z,34.20
2019-04-11T03:20:57.642Z,34.80
2019-04-11T03:23:25.628Z,34.10
2019-04-11T03:25:58.328Z,34.10
2019-04-11T03:28:30.584Z,34.10
2019-04-11T03:31:26.447Z,34.10
2019-04-11T03:34:24.365Z,34.10
2019-04-11T03:36:50.248Z,34.10
2019-04-11T03:38:55.130Z,34.00
2019-04-11T03:41:22.102Z,34.00
2019-04-11T03:43:41.841Z,34.00
2019-04-11T03:46:20.216Z,34.00
2019-04-11T03:48:45.056Z,34.00
2019-04-11T03:51:03.986Z,34.00
2019-04-11T03:53:34.281Z,34.00
2019-04-11T03:56:04.412Z,34.00
2019-04-11T03:58:33.713Z,34.00
2019-04-11T04:01:05.557Z,33.90
2019-04-11T04:03:34.219Z,33.80
2019-04-11T04:06:04.450Z,33.80
2019-04-11T04:08:34.252Z,33.70
2019-04-11T04:11:06.111Z,33.70
2019-04-11T04:13:38.766Z,33.50
2019-04-11T04:16:21.926Z,33.40
2019-04-11T04:18:47.822Z,33.20
2019-04-11T04:21:18.429Z,32.90
2019-04-11T04:23:47.457Z,33.00
2019-04-11T04:26:16.872Z,33.10
2019-04-11T04:28:47.377Z,33.20
2019-04-11T04:31:16.381Z,33.20
2019-04-11T04:33:47.197Z,33.10
2019-04-11T04:36:17.335Z,33.10
2019-04-11T04:38:46.582Z,33.10
2019-04-11T04:41:28.214Z,33.10
2019-04-11T04:43:48.099Z,33.10
2019-04-11T04:46:36.485Z,33.10
2019-04-11T04:48:49.417Z,33.10
2019-04-11T04:51:19.960Z,33.10
2019-04-11T04:53:49.944Z,33.00
2019-04-11T04:56:24.078Z,33.00
2019-04-11T04:58:50.737Z,33.00
2019-04-11T05:01:21.217Z,33.00
2019-04-11T05:03:50.911Z,33.00
2019-04-11T05:06:20.600Z,33.00
2019-04-11T05:08:49.518Z,33.00
2019-04-11T05:11:18.418Z,33.10
2019-04-11T05:13:50.674Z,33.00
2019-04-11T05:16:18.140Z,33.10
2019-04-11T05:18:46.891Z,33.10
2019-04-11T05:21:15.700Z,33.70
2019-04-11T05:23:44.515Z,33.70
2019-04-11T05:26:13.168Z,33.50
2019-04-11T05:28:42.176Z,33.20
2019-04-11T05:31:11.124Z,33.10
2019-04-11T05:33:39.826Z,32.70
2019-04-11T05:36:08.739Z,32.30
2019-04-11T05:38:37.933Z,32.20
2019-04-11T05:41:12.157Z,32.10
2019-04-11T05:43:41.304Z,32.10
2019-04-11T05:46:23.912Z,31.50
2019-04-11T05:48:45.234Z,31.20
2019-04-11T05:51:18.573Z,31.20
2019-04-11T05:53:44.380Z,31.80
2019-04-11T05:56:13.891Z,32.40
2019-04-11T05:58:47.043Z,32.30
2019-04-11T06:01:30.871Z,32.20
2019-04-11T06:04:14.219Z,31.90
2019-04-11T06:06:48.558Z,31.20
2019-04-11T06:09:22.961Z,31.00
2019-04-11T06:11:57.602Z,31.00
2019-04-11T06:14:28.393Z,31.20
2019-04-11T06:17:05.084Z,31.40
2019-04-11T06:19:51.907Z,30.90
2019-04-11T06:22:21.359Z,30.40
2019-04-11T06:24:56.446Z,30.00
2019-04-11T06:27:30.473Z,29.90
2019-04-11T06:30:18.564Z,29.70
2019-04-11T06:32:56.216Z,29.50
2019-04-11T06:35:35.859Z,29.20
2019-04-11T06:38:22.661Z,29.30
2019-04-11T06:40:56.131Z,29.70
2019-04-11T06:43:26.341Z,29.80
2019-04-11T06:46:13.235Z,29.70
2019-04-11T06:48:47.654Z,29.70
2019-04-11T06:51:24.138Z,29.60
2019-04-11T06:54:10.682Z,30.20
2019-04-11T06:56:41.281Z,30.20
2019-04-11T06:59:12.214Z,29.80
2019-04-11T07:01:42.599Z,29.60
2019-04-11T07:04:13.491Z,29.90
2019-04-11T07:06:43.940Z,30.00
2019-04-11T07:09:16.763Z,30.30
2019-04-11T07:11:50.732Z,29.70
2019-04-11T07:14:33.328Z,29.50
2019-04-11T07:17:20.964Z,30.00
2019-04-11T07:20:08.683Z,29.90
2019-04-11T07:22:55.297Z,29.30
2019-04-11T07:25:30.990Z,29.00
2019-04-11T07:28:09.986Z,28.80
2019-04-11T07:30:56.537Z,28.50
2019-04-11T07:33:31.229Z,28.40
2019-04-11T07:36:18.488Z,28.40
2019-04-11T07:38:52.322Z,28.30
2019-04-11T07:41:26.100Z,28.20
2019-04-11T07:43:54.813Z,28.20
2019-04-11T07:46:36.963Z,28.10
2019-04-11T07:49:06.019Z,28.30
2019-04-11T07:51:34.900Z,28.80
2019-04-11T07:54:04.790Z,29.20
2019-04-11T07:56:35.415Z,28.90
2019-04-11T07:59:08.729Z,28.60
2019-04-11T08:01:54.948Z,28.60
2019-04-11T08:04:27.829Z,28.70
2019-04-11T08:06:58.565Z,28.90
2019-04-11T08:09:29.055Z,29.20
2019-04-11T08:12:00.318Z,29.40
2019-04-11T08:14:45.606Z,29.40
2019-04-11T08:17:25.940Z,29.50
2019-04-11T08:19:49.007Z,29.90
2019-04-11T08:22:19.334Z,29.70
2019-04-11T08:25:01.922Z,29.50
2019-04-11T08:27:56.528Z,29.40
2019-04-11T08:30:22.540Z,29.30
2019-04-11T08:32:58.850Z,29.30
2019-04-11T08:35:30.170Z,29.70
2019-04-11T08:38:09.939Z,30.10
2019-04-11T08:40:53.365Z,30.80
2019-04-11T08:43:29.590Z,30.90
2019-04-11T08:46:06.732Z,30.10
2019-04-11T08:48:37.274Z,29.80
2019-04-11T08:51:13.251Z,29.70
2019-04-11T08:53:46.383Z,30.00
2019-04-11T08:56:19.515Z,30.40
2019-04-11T08:59:11.332Z,31.50
2019-04-11T09:01:40.610Z,31.90
2019-04-11T09:04:27.126Z,31.60
2019-04-11T09:06:57.321Z,31.40
2019-04-11T09:09:43.419Z,30.60
2019-04-11T09:12:14.217Z,30.10
2019-04-11T09:14:44.590Z,30.00
2019-04-11T09:17:16.387Z,30.00
2019-04-11T09:19:57.025Z,30.00
2019-04-11T09:22:31.072Z,30.10
2019-04-11T09:25:10.970Z,29.70
2019-04-11T09:27:57.673Z,29.40
2019-04-11T09:30:34.127Z,29.10
2019-04-11T09:33:20.770Z,29.10
2019-04-11T09:36:01.714Z,29.60
2019-04-11T09:38:34.819Z,29.70
2019-04-11T09:41:14.367Z,29.60
2019-04-11T09:43:44.274Z,29.40
2019-04-11T09:46:30.429Z,29.40
2019-04-11T09:49:04.504Z,29.20
2019-04-11T09:51:35.992Z,29.00
2019-04-11T09:54:19.676Z,29.00
2019-04-11T09:56:56.100Z,28.90
2019-04-11T09:59:42.367Z,28.80
2019-04-11T10:02:28.906Z,28.70
2019-04-11T10:05:01.226Z,28.50
2019-04-11T10:07:31.510Z,28.40
2019-04-11T10:10:04.677Z,28.30
2019-04-11T10:12:52.045Z,28.30
2019-04-11T10:15:23.264Z,28.20
2019-04-11T10:18:20.094Z,28.20
2019-04-11T10:20:42.586Z,28.20
2019-04-11T10:23:22.957Z,28.30
2019-04-11T10:25:53.721Z,28.60
2019-04-11T10:28:37.576Z,28.70
2019-04-11T10:31:08.512Z,28.60
2019-04-11T10:33:42.028Z,28.50
2019-04-11T10:36:12.661Z,28.90
2019-04-11T10:38:41.420Z,29.50
2019-04-11T10:41:12.493Z,29.70
2019-04-11T10:43:42.527Z,30.10
2019-04-11T10:46:15.964Z,30.80
2019-04-11T10:48:50.401Z,31.10
2019-04-11T10:51:24.598Z,30.70
2019-04-11T10:53:55.452Z,30.30
2019-04-11T10:56:26.467Z,30.50
2019-04-11T10:58:55.509Z,30.30
2019-04-11T11:01:31.780Z,30.10
2019-04-11T11:04:03.298Z,30.10
2019-04-11T11:06:33.721Z,30.20
2019-04-11T11:09:10.174Z,30.30
2019-04-11T11:11:40.857Z,30.50
2019-04-11T11:14:27.456Z,30.60
2019-04-11T11:17:00.809Z,30.80
2019-04-11T11:19:59.311Z,30.70
2019-04-11T11:22:34.915Z,30.80
2019-04-11T11:25:24.686Z,30.70
2019-04-11T11:27:55.737Z,30.80
2019-04-11T11:30:37.647Z,31.20
2019-04-11T11:33:07.903Z,30.50
2019-04-11T11:35:40.550Z,30.40
2019-04-11T11:38:11.400Z,30.50
2019-04-11T11:41:08.034Z,30.30
2019-04-11T11:43:37.035Z,30.30
2019-04-11T11:46:07.352Z,30.30
2019-04-11T11:48:37.744Z,30.30
2019-04-11T11:51:23.755Z,30.50
2019-04-11T11:54:11.496Z,30.60
2019-04-11T11:56:42.520Z,31.50
2019-04-11T11:59:16.986Z,31.90
2019-04-11T12:01:50.954Z,31.70
2019-04-11T12:04:32.942Z,31.70
2019-04-11T12:07:03.738Z,31.30
2019-04-11T12:09:36.334Z,31.20
2019-04-11T12:12:09.639Z,31.00
2019-04-11T12:14:44.979Z,30.80
2019-04-11T12:17:24.884Z,30.70
2019-04-11T12:20:09.744Z,30.60
2019-04-11T12:22:36.796Z,30.50
2019-04-11T12:25:07.506Z,30.30
2019-04-11T12:27:50.172Z,30.20
2019-04-11T12:30:29.705Z,30.10
2019-04-11T12:33:05.543Z,30.20
2019-04-11T12:35:36.051Z,30.10
2019-04-11T12:38:09.452Z,30.40
2019-04-11T12:40:55.603Z,30.50
2019-04-11T12:43:26.028Z,30.60
2019-04-11T12:46:12.721Z,30.80
2019-04-11T12:48:42.659Z,30.90
2019-04-11T12:51:28.889Z,30.80
2019-04-11T12:53:59.258Z,30.70
2019-04-11T12:56:46.012Z,30.70
2019-04-11T12:59:14.730Z,30.40
2019-04-11T13:01:45.354Z,30.10
2019-04-11T13:04:18.762Z,30.00
2019-04-11T13:06:49.132Z,30.00
2019-04-11T13:09:35.802Z,31.00
2019-04-11T13:12:06.261Z,30.70
2019-04-11T13:14:51.644Z,30.20
2019-04-11T13:17:24.836Z,30.00
2019-04-11T13:20:04.610Z,29.90
2019-04-11T13:22:29.953Z,29.80
2019-04-11T13:25:00.284Z,29.60
2019-04-11T13:27:30.679Z,30.10
2019-04-11T13:30:03.843Z,29.70
2019-04-11T13:32:34.215Z,29.60
2019-04-11T13:35:04.623Z,29.60
2019-04-11T13:37:51.010Z,29.70
2019-04-11T13:40:24.821Z,29.80
2019-04-11T13:43:11.351Z,29.70
2019-04-11T13:45:44.347Z,29.60
2019-04-11T13:48:31.066Z,29.90
2019-04-11T13:51:17.628Z,30.20
2019-04-11T13:53:56.675Z,30.10
2019-04-11T13:56:27.058Z,30.00
2019-04-11T13:59:13.561Z,29.90
2019-04-11T14:01:44.066Z,29.90
2019-04-11T14:04:20.423Z,30.20
2019-04-11T14:06:50.218Z,30.30
2019-04-11T14:09:20.611Z,30.30
2019-04-11T14:11:49.531Z,30.80
2019-04-11T14:14:22.384Z,31.00
2019-04-11T14:17:01.534Z,30.80
2019-04-11T14:19:43.850Z,30.80
2019-04-11T14:22:14.271Z,30.80
2019-04-11T14:25:00.582Z,30.70
2019-04-11T14:27:30.400Z,30.60
2019-04-11T14:30:12.314Z,30.50
2019-04-11T14:32:53.975Z,30.50
2019-04-11T14:35:35.553Z,30.60
2019-04-11T14:38:08.870Z,30.70
2019-04-11T14:41:01.968Z,30.70
2019-04-11T14:43:30.808Z,30.70
2019-04-11T14:46:17.109Z,30.50
2019-04-11T14:48:53.782Z,30.50
2019-04-11T14:51:29.944Z,30.50
2019-04-11T14:54:00.349Z,30.70
2019-04-11T14:56:39.303Z,30.70
2019-04-11T14:59:23.932Z,30.80
2019-04-11T15:01:53.444Z,31.00
2019-04-11T15:04:43.699Z,31.10
2019-04-11T15:07:12.830Z,31.30
2019-04-11T15:09:56.271Z,31.60
2019-04-11T15:12:26.647Z,31.60
2019-04-11T15:15:05.659Z,31.70
2019-04-11T15:17:36.203Z,31.90
2019-04-11T15:20:19.766Z,31.70
2019-04-11T15:23:02.273Z,31.40
2019-04-11T15:25:32.684Z,31.20
2019-04-11T15:28:12.605Z,31.20
2019-04-11T15:30:59.473Z,31.10
2019-04-11T15:33:35.709Z,31.00
2019-04-11T15:36:06.109Z,31.00
2019-04-11T15:38:52.626Z,30.80
2019-04-11T15:41:21.244Z,30.80
2019-04-11T15:44:13.929Z,30.80
2019-04-11T15:46:43.270Z,30.90
2019-04-11T15:49:29.550Z,31.50
2019-04-11T15:51:51.595Z,31.70
2019-04-11T15:54:24.656Z,31.90
2019-04-11T15:57:01.360Z,31.90
2019-04-11T15:59:31.884Z,31.90
2019-04-11T16:02:17.360Z,31.80
2019-04-11T16:04:47.691Z,31.30
2019-04-11T16:07:21.255Z,31.20
2019-04-11T16:09:50.764Z,31.00
2019-04-11T16:12:36.980Z,30.80
2019-04-11T16:15:19.395Z,30.90
2019-04-11T16:18:05.865Z,30.80
2019-04-11T16:20:34.985Z,30.70
2019-04-11T16:23:21.375Z,30.50
2019-04-11T16:25:51.769Z,30.40
2019-04-11T16:28:22.201Z,30.30
2019-04-11T16:30:52.719Z,30.70
2019-04-11T16:33:25.860Z,30.80
2019-04-11T16:35:57.234Z,30.70
2019-04-11T16:38:46.851Z,30.50
2019-04-11T16:41:32.499Z,30.40
2019-04-11T16:44:14.949Z,30.00
2019-04-11T16:47:01.368Z,30.20
2019-04-11T16:49:30.083Z,30.10
2019-04-11T16:51:58.839Z,30.10
2019-04-11T16:54:29.083Z,30.00
2019-04-11T16:56:58.002Z,29.80
2019-04-11T16:59:26.841Z,29.90
2019-04-11T17:01:55.583Z,30.00
2019-04-11T17:04:25.989Z,30.00
2019-04-11T17:06:56.485Z,29.80
2019-04-11T17:09:27.242Z,30.00
2019-04-11T17:11:56.798Z,29.90
2019-04-11T17:14:28.119Z,29.90
2019-04-11T17:17:00.651Z,29.80
2019-04-11T17:19:27.102Z,29.70
2019-04-11T17:21:55.970Z,29.60
2019-04-11T17:24:24.956Z,29.50
2019-04-11T17:26:53.764Z,29.90
2019-04-11T17:29:24.702Z,29.40
2019-04-11T17:31:55.707Z,29.30
2019-04-11T17:34:23.487Z,29.20
2019-04-11T17:36:52.234Z,29.10
2019-04-11T17:39:21.066Z,29.10
2019-04-11T17:41:49.880Z,29.00
2019-04-11T17:44:18.670Z,29.10
2019-04-11T17:46:47.453Z,29.00
2019-04-11T17:49:16.186Z,29.10
2019-04-11T17:51:55.244Z,29.10
2019-04-11T17:54:15.388Z,29.10
2019-04-11T17:56:44.202Z,29.00
2019-04-11T17:59:12.963Z,29.00
2019-04-11T18:01:41.731Z,28.90
2019-04-11T18:04:13.239Z,28.90
2019-04-11T18:06:40.680Z,28.90
2019-04-11T18:09:11.160Z,28.70
2019-04-11T18:11:40.159Z,28.80
2019-04-11T18:14:08.944Z,28.80
2019-04-11T18:16:37.753Z,28.80
2019-04-11T18:19:06.713Z,28.70
2019-04-11T18:21:38.657Z,28.60
2019-04-11T18:24:07.522Z,28.60
2019-04-11T18:26:36.312Z,28.60
2019-04-11T18:29:05.412Z,28.60
2019-04-11T18:31:34.215Z,28.60
2019-04-11T18:34:02.999Z,28.60
2019-04-11T18:36:32.509Z,28.50
2019-04-11T18:39:05.569Z,28.50
2019-04-11T18:41:31.691Z,28.40
2019-04-11T18:44:00.558Z,28.40
2019-04-11T18:46:29.153Z,28.40
2019-04-11T18:48:58.023Z,28.50
2019-04-11T18:51:26.807Z,28.50
2019-04-11T18:53:55.603Z,28.40
2019-04-11T18:56:24.288Z,28.40
2019-04-11T18:58:52.886Z,28.30
2019-04-11T19:01:21.792Z,28.20
2019-04-11T19:03:50.428Z,28.00
2019-04-11T19:06:27.633Z,27.90
2019-04-11T19:08:49.681Z,27.90
2019-04-11T19:11:18.510Z,27.80
2019-04-11T19:13:47.668Z,27.80
2019-04-11T19:16:19.463Z,27.70
2019-04-11T19:18:48.486Z,27.60
2019-04-11T19:21:20.183Z,27.60
2019-04-11T19:23:47.855Z,27.40
2019-04-11T19:26:16.555Z,27.40
2019-04-11T19:28:45.400Z,27.40
2019-04-11T19:31:14.233Z,27.30
2019-04-11T19:33:42.903Z,27.20
2019-04-11T19:36:12.279Z,27.20
2019-04-11T19:38:43.289Z,27.10
2019-04-11T19:41:12.146Z,27.00
2019-04-11T19:43:48.756Z,27.10
2019-04-11T19:46:15.284Z,27.10
2019-04-11T19:48:44.057Z,27.10
2019-04-11T19:51:17.170Z,27.10
2019-04-11T19:53:45.974Z,27.10
2019-04-11T19:56:20.763Z,27.00
2019-04-11T19:58:49.608Z,26.90
2019-04-11T20:01:18.476Z,26.90
2019-04-11T20:03:47.270Z,26.80
2019-04-11T20:06:16.135Z,26.70
2019-04-11T20:08:44.886Z,26.70
2019-04-11T20:11:13.640Z,26.60
2019-04-11T20:13:42.295Z,26.60
2019-04-11T20:16:12.495Z,26.60
2019-04-11T20:18:50.859Z,26.50
2019-04-11T20:21:12.026Z,26.40
2019-04-11T20:23:41.889Z,26.30
2019-04-11T20:26:11.213Z,26.20
2019-04-11T20:28:39.905Z,26.20
2019-04-11T20:31:08.518Z,26.20
2019-04-11T20:33:37.167Z,26.10
2019-04-11T20:36:08.096Z,26.00
2019-04-11T20:38:36.267Z,26.00
2019-04-11T20:41:05.094Z,25.90
2019-04-11T20:43:33.813Z,26.00
2019-04-11T20:46:03.287Z,26.00
2019-04-11T20:48:34.868Z,25.90
2019-04-11T20:51:02.317Z,25.90
2019-04-11T20:53:31.059Z,25.80
2019-04-11T20:55:59.854Z,25.80
2019-04-11T20:58:28.656Z,25.80
2019-04-11T21:00:57.507Z,25.70
2019-04-11T21:03:29.907Z,25.70
2019-04-11T21:05:58.970Z,25.60
2019-04-11T21:08:26.916Z,25.60
2019-04-11T21:10:55.583Z,25.60
2019-04-11T21:13:24.220Z,25.50
2019-04-11T21:15:53.101Z,25.50
2019-04-11T21:18:25.657Z,25.40
2019-04-11T21:20:55.033Z,25.40
2019-04-11T21:23:24.741Z,25.40
2019-04-11T21:25:53.002Z,25.30
2019-04-11T21:28:21.823Z,25.30
2019-04-11T21:30:50.633Z,25.30
2019-04-11T21:33:19.396Z,25.20
2019-04-11T21:35:48.078Z,25.30
2019-04-11T21:38:16.809Z,25.30
2019-04-11T21:40:48.351Z,25.20
2019-04-11T21:43:17.116Z,25.20
2019-04-11T21:45:45.794Z,25.20
2019-04-11T21:48:14.660Z,25.10
2019-04-11T21:50:43.401Z,25.10
2019-04-11T21:53:14.337Z,25.10
2019-04-11T21:55:47.035Z,25.10
2019-04-11T21:58:12.973Z,25.00
2019-04-11T22:00:45.440Z,25.00
2019-04-11T22:03:14.535Z,25.00
2019-04-11T22:05:43.321Z,24.90
2019-04-11T22:08:12.098Z,25.00
2019-04-11T22:10:41.064Z,25.00
2019-04-11T22:13:10.690Z,24.90
2019-04-11T22:15:42.166Z,24.90
2019-04-11T22:18:09.955Z,24.90
2019-04-11T22:20:38.715Z,24.90
2019-04-11T22:23:07.454Z,24.90
2019-04-11T22:25:36.170Z,24.90
2019-04-11T22:28:05.031Z,24.90
2019-04-11T22:30:33.740Z,25.00
2019-04-11T22:33:16.194Z,25.00
2019-04-11T22:35:44.892Z,25.10
2019-04-11T22:38:13.700Z,25.00
2019-04-11T22:40:42.539Z,25.10
2019-04-11T22:43:23.761Z,25.10
2019-04-11T22:45:41.622Z,25.10
2019-04-11T22:48:10.479Z,25.10
2019-04-11T22:50:40.678Z,25.10
2019-04-11T22:53:12.892Z,25.10
2019-04-11T22:55:41.290Z,25.00
2019-04-11T22:58:13.958Z,25.10
2019-04-11T23:00:45.047Z,25.10
2019-04-11T23:03:30.944Z,25.10
2019-04-11T23:05:59.785Z,25.10
2019-04-11T23:08:28.546Z,25.10
2019-04-11T23:10:57.246Z,25.10
2019-04-11T23:13:26.015Z,25.10
2019-04-11T23:15:54.920Z,25.10
2019-04-11T23:18:23.723Z,25.10
2019-04-11T23:20:52.539Z,25.10
2019-04-11T23:23:21.219Z,25.10
2019-04-11T23:25:49.955Z,25.20
2019-04-11T23:28:21.131Z,25.20
2019-04-11T23:30:50.496Z,25.30
2019-04-11T23:33:21.442Z,25.30
2019-04-11T23:35:51.199Z,25.30
2019-04-11T23:38:23.641Z,25.50
2019-04-11T23:40:51.247Z,25.50
2019-04-11T23:43:20.657Z,25.60
2019-04-11T23:45:51.169Z,25.60
2019-04-11T23:48:23.766Z,25.50
2019-04-11T23:50:50.293Z,25.50
2019-04-11T23:53:18.986Z,25.50
2019-04-11T23:55:47.700Z,25.50
2019-04-11T23:58:16.390Z,25.40
